Time;durP1;ratioP1;P1;durP2;ratioP2;P2;SDS_P1;SDS_P2;PMS_P1;PMS_P2;Temp;Humidity;BMP_temperature;BMP_pressure;BME280_temperature;BME280_humidity;BME280_pressure;Samples;Min_cycle;Max_cycle;Signal;HPM_P1;HPM_P2
2023/02/14 00:00:00;;;;;;;41.27;25.40;;;2.50;94.90;;;1.73;86.66;99896.66;5041180;28;20460;-76
2023/02/14 00:02:27;;;;;;;41.53;25.17;;;2.50;96.10;;;2.16;85.77;99925.50;5048711;28;20560;-77
2023/02/14 00:04:55;;;;;;;40.73;27.33;;;2.60;96.50;;;1.78;86.02;99906.03;5046207;28;20449;-75
2023/02/14 00:07:24;;;;;;;43.63;24.83;;;2.50;95.30;;;2.01;85.83;99918.63;5052135;28;20460;-74
2023/02/14 00:09:51;;;;;;;37.30;24.40;;;2.60;95.70;;;2.16;85.38;99919.31;5043740;28;20479;-74
2023/02/14 00:12:18;;;;;;;40.30;25.50;;;2.50;96.30;;;2.15;84.87;99910.47;5044637;28;21059;-76
2023/02/14 00:17:38;;;;;;;40.70;24.33;;;2.70;95.40;;;2.15;85.33;99912.28;5014488;28;20519;-74
2023/02/14 00:20:09;;;;;;;41.43;26.30;;;2.70;95.60;;;2.22;85.68;99918.84;5044286;28;20462;-74
2023/02/14 00:22:37;;;;;;;42.63;25.87;;;2.70;95.30;;;2.04;85.63;99911.25;5047196;28;20479;-75
2023/02/14 00:25:05;;;;;;;45.50;27.67;;;2.70;95.10;;;1.88;86.42;99898.19;5049770;28;20456;-75
2023/02/14 00:27:33;;;;;;;45.83;27.07;;;2.60;95.90;;;2.25;85.68;99914.16;5065801;28;20518;-75
2023/02/14 00:30:02;;;;;;;45.90;26.87;;;2.60;96.70;;;2.13;86.06;99915.06;5050568;28;20445;-78
2023/02/14 00:32:29;;;;;;;44.83;27.73;;;2.70;96.30;;;2.08;86.13;99926.06;5067580;28;20948;-78
2023/02/14 00:34:57;;;;;;;43.13;25.70;;;2.60;96.50;;;2.37;85.41;99923.03;5046319;28;20449;-74
2023/02/14 00:37:25;;;;;;;48.23;27.40;;;2.70;97.20;;;2.15;86.32;99926.47;5046861;28;20449;-77
2023/02/14 00:39:54;;;;;;;43.40;25.90;;;2.70;96.20;;;1.88;87.32;99892.03;5056012;28;20453;-77
2023/02/14 00:42:22;;;;;;;48.90;25.80;;;2.60;96.60;;;2.26;86.39;99914.97;5067410;28;20477;-75
2023/02/14 00:44:49;;;;;;;43.97;28.37;;;2.60;97.70;;;2.12;86.78;99918.69;5047503;28;20529;-77
2023/02/14 00:47:16;;;;;;;45.10;27.03;;;2.70;97.20;;;2.15;86.69;99926.47;5052060;28;20457;-77
2023/02/14 00:49:43;;;;;;;49.63;26.80;;;2.70;97.10;;;2.26;86.35;99921.19;5048029;28;20457;-77
2023/02/14 00:52:10;;;;;;;48.37;26.77;;;2.70;96.70;;;2.26;86.18;99926.50;5051883;28;20522;-76
2023/02/14 00:54:38;;;;;;;47.73;28.37;;;2.70;97.20;;;2.33;86.15;99924.25;5046840;28;20979;-72
2023/02/14 00:57:06;;;;;;;45.70;27.30;;;2.70;96.80;;;2.20;86.18;99931.47;5046383;28;20452;-75
2023/02/14 00:59:34;;;;;;;42.37;24.93;;;2.80;96.30;;;2.04;86.84;99937.94;5062436;28;20457;-77
2023/02/14 01:02:01;;;;;;;42.90;25.07;;;2.70;96.30;;;2.29;86.31;99929.91;5055099;28;20481;-76
2023/02/14 01:04:28;;;;;;;44.80;25.57;;;2.70;97.40;;;2.07;86.57;99921.69;5044522;28;20454;-77
2023/02/14 01:06:55;;;;;;;44.10;26.80;;;2.70;97.00;;;2.25;86.29;99924.81;5047833;28;20458;-75
2023/02/14 01:09:23;;;;;;;46.97;25.57;;;2.70;96.40;;;1.89;86.93;99915.06;5043360;28;20449;-75
2023/02/14 01:11:50;;;;;;;47.70;25.63;;;2.60;96.40;;;1.80;88.50;99927.25;5041761;28;20465;-74
2023/02/14 01:14:19;;;;;;;47.10;26.03;;;2.50;98.20;;;1.98;87.72;99933.06;5049221;28;20548;-76
2023/02/14 01:16:46;;;;;;;44.50;26.40;;;2.50;98.70;;;2.06;87.52;99932.50;5064558;28;20450;-77
2023/02/14 01:19:14;;;;;;;42.40;25.17;;;2.60;99.00;;;2.10;87.36;99917.97;5052159;28;20452;-73
2023/02/14 01:21:41;;;;;;;47.67;25.33;;;2.60;97.80;;;1.94;87.54;99926.22;5061766;28;20454;-75
2023/02/14 01:24:09;;;;;;;44.70;25.90;;;2.60;97.90;;;2.06;87.17;99925.34;5048086;28;20453;-74
2023/02/14 01:26:36;;;;;;;42.10;25.13;;;2.60;98.10;;;2.05;87.14;99922.78;5050918;28;20469;-75
2023/02/14 01:29:05;;;;;;;46.50;27.63;;;2.50;98.30;;;2.06;87.28;99935.16;5048464;28;20457;-74
2023/02/14 01:31:35;;;;;;;44.50;24.87;;;2.60;98.30;;;2.06;87.29;99924.50;5044454;28;20487;-74
2023/02/14 01:34:03;;;;;;;43.83;26.67;;;2.60;98.20;;;2.22;86.91;99935.72;5049769;28;20449;-71
2023/02/14 01:36:33;;;;;;;49.70;28.17;;;2.60;97.90;;;2.13;86.33;99909.72;5047964;28;20511;-76
2023/02/14 01:39:04;;;;;;;41.53;24.63;;;2.70;97.30;;;2.12;85.96;99908.03;5048482;28;20452;-74
2023/02/14 01:41:35;;;;;;;42.30;25.90;;;2.70;96.90;;;2.04;86.80;99910.41;5062714;28;20469;-73
2023/02/14 01:44:06;;;;;;;45.37;26.93;;;2.70;96.70;;;2.25;85.90;99934.63;5042303;28;20467;-72
2023/02/14 01:46:36;;;;;;;39.20;24.50;;;2.70;97.40;;;2.18;86.54;99922.72;5050000;28;20453;-76
2023/02/14 01:49:09;;;;;;;41.67;25.03;;;2.60;97.40;;;2.40;85.09;99922.78;5065167;28;20843;-74
2023/02/14 01:51:40;;;;;;;42.63;24.80;;;2.70;97.10;;;2.04;86.48;99926.41;5049188;28;20842;-73
2023/02/14 01:54:09;;;;;;;39.03;25.00;;;2.70;95.90;;;1.89;86.93;99907.91;5050739;28;20449;-74
2023/02/14 01:56:42;;;;;;;36.20;23.73;;;2.60;96.70;;;2.08;86.89;99928.72;5065470;28;20949;-76
2023/02/14 01:59:16;;;;;;;41.57;24.97;;;2.60;97.70;;;1.95;87.09;99931.47;5050273;28;20575;-74
2023/02/14 02:01:46;;;;;;;40.33;24.63;;;2.60;96.70;;;1.74;88.04;99928.56;5049903;28;20468;-73
2023/02/14 02:04:17;;;;;;;42.73;25.60;;;2.50;97.80;;;1.79;88.05;99920.22;5058884;28;20457;-72
2023/02/14 02:06:48;;;;;;;42.77;25.60;;;2.40;98.70;;;1.77;88.12;99914.16;5058530;28;20481;-74
2023/02/14 02:09:20;;;;;;;44.90;26.00;;;2.40;98.90;;;1.84;87.65;99915.41;5062120;28;20544;-76
2023/02/14 02:11:48;;;;;;;42.90;25.07;;;2.40;99.30;;;1.83;87.89;99916.38;5044171;28;20461;-76
2023/02/14 02:14:20;;;;;;;44.07;26.27;;;2.50;98.70;;;1.87;87.68;99923.16;5046774;28;20934;-73
2023/02/14 02:17:11;;;;;;;42.63;25.00;;;2.50;98.20;;;1.68;88.06;99921.84;5048131;28;20957;-74
2023/02/14 02:20:25;;;;;;;40.67;24.60;;;2.50;97.60;;;1.51;89.71;99914.22;5048341;28;20546;-71
2023/02/14 02:23:50;;;;;;;44.67;26.03;;;2.20;99.90;;;1.56;89.26;99896.09;5050008;28;20991;-74
2023/02/14 02:27:15;;;;;;;50.73;26.03;;;2.20;99.90;;;1.51;89.28;99914.22;5064012;28;20460;-71
2023/02/14 02:30:31;;;;;;;43.67;25.70;;;2.20;99.90;;;1.64;88.73;99914.19;5060609;28;20457;-77
2023/02/14 02:36:42;;;;;;;54.60;28.40;;;2.20;99.90;;;1.54;89.15;99909.53;5089073;27;20569;-76
2023/02/14 02:39:26;;;;;;;49.93;27.23;;;2.20;99.90;;;1.49;89.86;99922.31;5064503;28;20447;-78
2023/02/14 02:42:04;;;;;;;51.83;26.70;;;2.20;99.90;;;1.30;90.71;99917.47;5063319;28;20458;-73
2023/02/14 02:44:44;;;;;;;50.70;24.60;;;2.10;99.90;;;1.36;90.82;99917.03;5054538;28;20586;-75
2023/02/14 02:47:21;;;;;;;55.67;26.90;;;2.00;99.90;;;1.45;90.44;99910.19;5055594;28;22988;-72
2023/02/14 02:53:05;;;;;;;53.50;26.60;;;2.00;99.90;;;1.12;91.43;99895.66;5059884;28;20504;-77
2023/02/14 02:58:33;;;;;;;59.13;30.80;;;1.90;99.90;;;1.17;91.41;99908.66;5059393;28;20980;-77
2023/02/14 03:01:03;;;;;;;59.80;30.70;;;1.90;99.90;;;1.42;90.60;99915.75;5070787;28;20461;-75
2023/02/14 03:06:17;;;;;;;56.60;28.80;;;2.00;99.90;;;1.42;90.26;99900.59;5068639;28;20537;-77
2023/02/14 03:08:46;;;;;;;62.33;31.77;;;2.10;99.90;;;1.42;90.27;99905.91;5058388;28;20562;-76
2023/02/14 03:11:13;;;;;;;60.80;29.47;;;2.00;99.90;;;1.38;90.34;99904.44;5070343;28;20485;-76
2023/02/14 03:14:00;;;;;;;56.57;29.80;;;2.00;99.90;;;1.35;90.18;99899.34;5057402;28;20453;-75
2023/02/14 03:16:35;;;;;;;56.53;27.87;;;2.00;99.90;;;1.30;90.63;99914.81;5055704;28;20956;-78
2023/02/14 03:22:41;;;;;;;53.07;24.67;;;2.00;99.90;;;-0.38;90.78;99641.81;5061686;28;21113;-80
2023/02/14 03:25:22;;;;;;;53.13;27.70;;;1.90;99.90;;;1.24;90.79;99917.91;5060778;28;20460;-78
2023/02/14 03:28:00;;;;;;;52.60;29.77;;;1.90;99.90;;;0.88;90.74;99866.28;5061598;28;20940;-78
2023/02/14 03:30:39;;;;;;;55.77;28.43;;;1.80;99.90;;;1.17;91.30;99921.97;5060968;28;20456;-75
2023/02/14 03:33:13;;;;;;;56.37;29.30;;;1.80;99.90;;;1.28;91.51;99919.38;5073640;28;20472;-78
2023/02/14 03:35:51;;;;;;;61.97;29.50;;;1.80;99.90;;;1.26;90.29;99910.66;5060822;28;20475;-79
2023/02/14 03:38:24;;;;;;;56.67;30.00;;;1.90;99.90;;;0.67;91.23;99856.16;5081702;28;20445;-80
2023/02/14 03:40:59;;;;;;;52.33;26.77;;;1.80;99.90;;;1.26;90.98;99919.50;5074457;28;20471;-80
2023/02/14 03:43:32;;;;;;;48.47;26.97;;;1.80;99.90;;;1.11;90.96;99918.75;5064178;28;20511;-77
2023/02/14 03:46:05;;;;;;;51.53;26.67;;;1.80;99.90;;;1.20;90.98;99924.41;5069925;28;21041;-77
2023/02/14 03:48:35;;;;;;;54.67;27.43;;;1.80;99.90;;;0.95;91.70;99918.13;5067818;28;20455;-76
2023/02/14 03:51:04;;;;;;;49.27;25.30;;;1.70;99.90;;;1.16;91.56;99914.94;5069311;28;20509;-78
2023/02/14 03:53:36;;;;;;;49.80;26.17;;;1.70;99.90;;;1.19;90.64;99914.72;5068658;28;20583;-77
2023/02/14 03:56:13;;;;;;;51.03;27.50;;;1.80;99.90;;;1.22;90.62;99914.50;5055237;28;20863;-78
2023/02/14 03:58:43;;;;;;;49.10;26.27;;;1.80;99.90;;;0.85;89.94;99838.06;5065913;28;20457;-77
2023/02/14 04:01:18;;;;;;;49.70;25.43;;;1.80;99.90;;;1.09;90.59;99903.88;5072534;28;20444;-80
2023/02/14 04:03:48;;;;;;;57.27;25.97;;;1.80;99.90;;;1.33;90.01;99906.59;5071605;28;20939;-78
2023/02/14 04:06:18;;;;;;;52.70;25.53;;;1.80;99.90;;;1.30;90.43;99916.63;5050612;28;20505;-79
2023/02/14 04:08:46;;;;;;;54.20;28.20;;;1.80;99.90;;;1.39;89.69;99916.81;5048802;28;20481;-79
2023/02/14 04:11:15;;;;;;;52.23;24.87;;;1.90;99.90;;;1.32;90.34;99918.22;5067071;28;20462;-82
2023/02/14 04:13:42;;;;;;;50.57;25.03;;;1.80;99.90;;;0.61;90.97;99846.84;5057007;28;20500;-81
2023/02/14 04:16:10;;;;;;;53.67;26.80;;;1.70;99.90;;;1.08;91.54;99924.31;5053240;28;20475;-77
2023/02/14 04:21:22;;;;;;;53.27;26.47;;;1.70;99.90;;;1.04;92.13;99927.28;5048435;28;21204;-78
2023/02/14 04:23:50;;;;;;;54.83;26.67;;;1.60;99.90;;;1.00;91.95;99905.38;5051011;28;20510;-80
2023/02/14 04:26:18;;;;;;;56.73;28.23;;;1.60;99.90;;;1.07;91.63;99917.28;5062929;28;20461;-79
2023/02/14 04:28:46;;;;;;;61.20;29.50;;;1.70;99.90;;;0.81;91.06;99868.53;5053080;28;20478;-80
2023/02/14 04:31:13;;;;;;;53.80;26.60;;;1.70;99.90;;;1.07;91.51;99909.28;5049361;28;20452;-84
2023/02/14 04:33:40;;;;;;;50.00;26.80;;;1.70;99.90;;;1.05;91.70;99913.88;5051941;28;20575;-78
2023/02/14 04:36:08;;;;;;;53.50;27.37;;;1.70;99.90;;;0.94;91.98;99903.13;5052940;28;20481;-79
2023/02/14 04:38:35;;;;;;;50.73;25.30;;;1.70;99.90;;;1.05;92.19;99897.03;5045326;28;21021;-82
2023/02/14 04:41:03;;;;;;;53.20;25.83;;;1.70;99.90;;;1.11;91.76;99896.63;5047968;28;20485;-75
2023/02/14 04:43:31;;;;;;;53.27;27.37;;;1.70;99.90;;;1.04;91.66;99887.34;5048365;28;20460;-73
2023/02/14 04:45:58;;;;;;;60.67;27.33;;;1.70;99.90;;;1.16;91.97;99885.66;5045208;28;20471;-76
2023/02/14 04:48:25;;;;;;;57.47;26.93;;;1.70;99.90;;;1.08;91.56;99887.03;5056218;28;20449;-79
2023/02/14 04:50:53;;;;;;;51.33;27.07;;;1.70;99.90;;;0.71;91.31;99831.06;5057129;28;20457;-78
2023/02/14 04:53:21;;;;;;;61.90;28.70;;;1.70;99.90;;;0.91;92.86;99898.00;5049967;28;20481;-80
2023/02/14 04:55:49;;;;;;;64.80;30.00;;;1.60;99.90;;;0.98;92.82;99885.97;5048827;28;20483;-77
2023/02/14 04:58:17;;;;;;;57.20;28.57;;;1.60;99.90;;;1.18;92.26;99886.38;5066330;28;20461;-80
2023/02/14 05:00:46;;;;;;;46.83;23.20;;;1.70;99.90;;;1.16;91.79;99885.66;5049491;28;20817;-78
2023/02/14 05:03:14;;;;;;;57.43;28.27;;;1.70;99.90;;;1.27;91.44;99891.91;5043471;28;20464;-78
2023/02/14 05:05:41;;;;;;;57.07;27.77;;;1.70;99.90;;;1.32;91.23;99875.59;5041504;28;20463;-78
2023/02/14 05:08:08;;;;;;;53.97;25.37;;;1.80;99.90;;;1.48;90.53;99879.81;5050404;28;20458;-78
2023/02/14 05:10:35;;;;;;;52.60;26.57;;;1.90;99.90;;;1.60;89.45;99878.94;5047316;28;20453;-77
2023/02/14 05:13:03;;;;;;;54.97;27.83;;;2.00;99.90;;;1.55;89.53;99881.06;5058587;28;20487;-74
2023/02/14 05:15:30;;;;;;;52.70;25.47;;;2.00;99.90;;;1.71;88.96;99875.47;5059987;28;20496;-77
2023/02/14 05:18:01;;;;;;;50.63;26.33;;;2.00;99.90;;;1.45;89.35;99882.72;5049473;28;20459;-77
2023/02/14 05:20:29;;;;;;;53.87;26.63;;;2.00;99.90;;;1.29;90.35;99881.16;5051739;28;21129;-80
2023/02/14 05:22:58;;;;;;;52.70;26.63;;;1.90;99.90;;;1.26;90.72;99881.34;5067351;28;20463;-78
2023/02/14 05:25:26;;;;;;;56.00;27.53;;;1.90;99.90;;;1.35;90.46;99877.16;5064483;28;20488;-79
2023/02/14 05:27:53;;;;;;;56.40;26.83;;;1.90;99.90;;;1.50;89.88;99880.56;5046390;28;20519;-79
2023/02/14 05:30:25;;;;;;;50.77;25.73;;;1.90;99.90;;;1.52;89.72;99883.97;5064891;28;20530;-80
2023/02/14 05:32:53;;;;;;;51.83;27.27;;;1.90;99.90;;;1.31;90.23;99881.03;5050763;28;20456;-77
2023/02/14 05:35:22;;;;;;;56.63;27.80;;;1.90;99.90;;;0.88;90.20;99815.72;5057736;28;20480;-80
2023/02/14 05:37:49;;;;;;;54.23;27.80;;;1.90;99.90;;;1.18;91.91;99875.75;5050916;28;20572;-80
2023/02/14 05:40:16;;;;;;;59.37;27.40;;;1.80;99.90;;;1.22;91.08;99874.56;5061843;28;20460;-72
2023/02/14 05:42:44;;;;;;;52.90;26.57;;;1.80;99.90;;;1.32;90.78;99872.94;5048073;28;20527;-74
2023/02/14 05:45:12;;;;;;;60.10;27.40;;;1.80;99.90;;;1.19;90.85;99866.78;5037666;28;21023;-72
2023/02/14 05:47:40;;;;;;;52.00;26.20;;;1.80;99.90;;;1.32;90.66;99872.06;5065672;28;20449;-71
2023/02/14 05:50:09;;;;;;;58.27;27.20;;;1.80;99.90;;;1.10;90.93;99869.13;5052063;28;20433;-72
2023/02/14 05:52:38;;;;;;;56.77;28.30;;;1.80;99.90;;;1.15;91.52;99855.50;5060498;28;20457;-68
2023/02/14 05:55:06;;;;;;;55.00;27.10;;;1.80;99.90;;;1.44;90.32;99854.34;5052997;28;20477;-72
2023/02/14 05:57:33;;;;;;;57.10;25.67;;;1.90;99.90;;;1.38;90.28;99866.31;5050254;28;20453;-71
2023/02/14 06:00:01;;;;;;;55.83;28.03;;;1.90;99.90;;;1.13;91.26;99868.06;5045840;28;20498;-69
2023/02/14 06:02:28;;;;;;;53.07;27.30;;;1.80;99.90;;;1.20;91.23;99865.81;5048466;28;20446;-72
2023/02/14 06:04:55;;;;;;;54.27;28.97;;;1.80;99.90;;;1.06;91.82;99862.31;5048573;28;20445;-70
2023/02/14 06:07:23;;;;;;;54.97;25.80;;;1.70;99.90;;;1.07;91.63;99861.38;5038156;28;20457;-71
2023/02/14 06:09:52;;;;;;;55.20;25.93;;;1.70;99.90;;;1.03;91.69;99867.88;5052412;28;20458;-74
2023/02/14 06:12:19;;;;;;;59.80;27.87;;;1.70;99.90;;;1.06;91.69;99856.13;5059671;28;21233;-73
2023/02/14 06:14:46;;;;;;;55.43;26.10;;;1.70;99.90;;;1.18;91.89;99868.59;5040419;28;20460;-73
2023/02/14 06:17:13;;;;;;;54.93;26.83;;;1.80;99.90;;;1.14;91.77;99867.09;5063236;28;20479;-71
2023/02/14 06:19:42;;;;;;;58.30;26.67;;;1.70;99.90;;;0.94;92.33;99871.19;5046462;28;20956;-71
2023/02/14 06:22:10;;;;;;;58.87;28.07;;;1.60;99.90;;;0.99;92.58;99871.72;5041172;28;20973;-73
2023/02/14 06:24:37;;;;;;;62.30;27.27;;;1.60;99.90;;;0.92;92.81;99886.41;5049860;28;20483;-69
2023/02/14 06:27:06;;;;;;;60.13;26.97;;;1.60;99.90;;;1.05;92.43;99879.25;5047594;28;20499;-70
2023/02/14 06:29:33;;;;;;;51.30;25.93;;;1.60;99.90;;;1.08;92.05;99871.06;5045063;28;20507;-73
2023/02/14 06:32:04;;;;;;;58.13;27.80;;;1.70;99.90;;;0.95;92.23;99880.88;5041485;28;20468;-71
2023/02/14 06:34:32;;;;;;;51.77;26.00;;;1.60;99.90;;;0.89;92.46;99889.28;5039754;28;20457;-73
2023/02/14 06:36:59;;;;;;;60.77;28.30;;;1.60;99.90;;;0.92;92.71;99886.41;5030860;28;20474;-71
2023/02/14 06:39:27;;;;;;;60.70;27.73;;;1.60;99.90;;;0.92;93.43;99886.41;5029625;28;20449;-72
2023/02/14 06:41:54;;;;;;;64.13;26.43;;;1.50;99.90;;;0.79;93.69;99886.41;5045542;28;20461;-73
2023/02/14 06:44:23;;;;;;;64.80;27.37;;;1.50;99.90;;;1.08;93.36;99892.34;5050089;28;20568;-74
2023/02/14 06:46:50;;;;;;;56.60;27.63;;;1.60;99.90;;;0.98;92.72;99893.94;5041861;28;20953;-73
2023/02/14 06:49:17;;;;;;;64.57;28.87;;;1.60;99.90;;;0.74;94.09;99892.06;5057346;28;20445;-74
2023/02/14 06:51:44;;;;;;;73.67;27.03;;;1.50;99.90;;;0.82;93.66;99888.88;5035804;28;20976;-69
2023/02/14 06:54:12;;;;;;;65.90;27.40;;;1.50;99.90;;;0.94;93.47;99892.47;5042290;28;20449;-71
2023/02/14 06:56:39;;;;;;;68.70;30.03;;;1.50;99.90;;;0.96;93.51;99895.88;5047315;28;20512;-67
2023/02/14 06:59:06;;;;;;;58.57;29.63;;;1.50;99.90;;;0.88;93.24;99895.56;5042021;28;20445;-72
2023/02/14 07:01:34;;;;;;;63.87;29.07;;;1.50;99.90;;;0.89;93.29;99891.94;5034092;28;21025;-69
2023/02/14 07:04:02;;;;;;;70.03;29.60;;;1.50;99.90;;;0.97;93.20;99889.59;5046535;28;20903;-71
2023/02/14 07:06:29;;;;;;;68.27;29.57;;;1.50;99.90;;;0.84;93.36;99884.28;5058416;28;20456;-68
2023/02/14 07:08:57;;;;;;;70.43;29.43;;;1.60;99.90;;;0.92;92.87;99887.28;5032247;28;20473;-70
2023/02/14 07:11:24;;;;;;;65.50;28.60;;;1.50;99.90;;;0.94;93.35;99872.03;5043112;28;20456;-70
2023/02/14 07:13:52;;;;;;;61.03;28.43;;;1.50;99.90;;;1.15;92.43;99876.78;5046898;28;20961;-72
2023/02/14 07:16:19;;;;;;;78.77;31.20;;;1.70;99.90;;;1.20;91.99;99889.78;5040483;28;20481;-70
2023/02/14 07:18:48;;;;;;;70.97;32.33;;;1.70;99.90;;;1.11;92.42;99878.81;5041954;28;20511;-70
2023/02/14 07:21:15;;;;;;;63.80;29.30;;;1.70;99.90;;;0.88;93.32;99884.94;5026767;28;20458;-68
2023/02/14 07:23:45;;;;;;;69.50;31.80;;;1.60;99.90;;;1.03;92.92;99886.50;5048976;28;20945;-72
2023/02/14 07:26:16;;;;;;;70.77;30.20;;;1.60;99.90;;;0.95;92.81;99891.50;5043899;28;20535;-70
2023/02/14 07:28:44;;;;;;;61.43;29.50;;;1.60;99.90;;;1.04;91.93;99884.69;5034081;28;20522;-70
2023/02/14 07:31:12;;;;;;;59.63;25.97;;;1.70;99.90;;;0.97;91.95;99885.13;5037518;28;20642;-71
2023/02/14 07:33:39;;;;;;;59.37;26.33;;;1.60;99.90;;;0.98;92.46;99885.97;5050635;28;20549;-70
2023/02/14 07:36:10;;;;;;;67.03;29.33;;;1.60;99.90;;;0.93;92.78;99890.78;5030971;28;20487;-70
2023/02/14 07:38:37;;;;;;;64.80;28.47;;;1.60;99.90;;;1.07;92.00;99893.31;5043232;28;20529;-71
2023/02/14 07:41:05;;;;;;;61.90;27.83;;;1.70;99.90;;;1.45;90.92;99885.38;5037634;28;20471;-71
2023/02/14 07:43:33;;;;;;;61.30;29.20;;;1.80;99.90;;;0.84;91.05;99810.63;5043135;28;20460;-72
2023/02/14 07:46:01;;;;;;;59.60;27.00;;;1.80;99.90;;;0.96;91.52;99887.88;5054659;28;21255;-72
2023/02/14 07:48:29;;;;;;;57.00;26.93;;;1.70;99.90;;;1.05;91.85;99879.25;5047018;28;21360;-72
2023/02/14 07:50:56;;;;;;;53.87;25.20;;;1.70;99.90;;;1.00;91.58;99878.75;5052100;28;20481;-71
2023/02/14 07:53:25;;;;;;;57.57;26.57;;;1.60;99.90;;;1.34;90.79;99894.97;5043133;28;20573;-71
2023/02/14 07:55:54;;;;;;;52.30;25.27;;;1.70;99.90;;;1.36;89.65;99885.06;5055130;28;20564;-68
2023/02/14 07:58:21;;;;;;;50.17;26.23;;;1.90;99.90;;;1.41;89.18;99866.94;5045808;28;20453;-70
2023/02/14 08:00:49;;;;;;;57.00;26.70;;;1.90;99.90;;;1.35;88.99;99875.38;5039672;28;20860;-70
2023/02/14 08:03:18;;;;;;;52.60;26.93;;;2.00;99.90;;;1.30;89.17;99861.53;5053980;28;20940;-72
2023/02/14 08:05:55;;;;;;;54.30;27.50;;;2.00;99.90;;;1.31;89.94;99876.56;5048008;28;20476;-72
2023/02/14 08:08:27;;;;;;;62.73;30.77;;;1.90;99.90;;;1.68;88.95;99875.72;5058347;28;20531;-74
2023/02/14 08:10:55;;;;;;;55.17;27.20;;;2.00;99.90;;;1.46;89.10;99876.41;5051266;28;20458;-75
2023/02/14 08:13:21;;;;;;;58.87;29.13;;;2.10;99.90;;;1.44;88.53;99873.00;5040968;28;20458;-74
2023/02/14 08:16:08;;;;;;;56.30;28.03;;;2.10;99.60;;;1.32;89.31;99875.59;5036944;28;20477;-71
2023/02/14 08:18:38;;;;;;;56.13;28.30;;;2.00;99.80;;;1.32;90.21;99869.41;5043841;28;20453;-74
2023/02/14 08:21:09;;;;;;;59.57;27.27;;;2.00;99.90;;;1.65;88.81;99863.44;5040929;28;20533;-72
2023/02/14 08:23:38;;;;;;;53.80;25.43;;;2.10;99.90;;;1.63;88.63;99861.84;5045483;28;20548;-73
2023/02/14 08:26:07;;;;;;;59.67;27.20;;;2.20;99.30;;;1.86;87.44;99862.81;5039669;28;20445;-72
2023/02/14 08:28:34;;;;;;;50.97;26.67;;;2.30;99.20;;;1.82;86.95;99856.88;5037035;28;20868;-68
2023/02/14 08:31:02;;;;;;;51.57;25.37;;;2.30;98.00;;;1.92;86.53;99867.72;5038998;28;21044;-75
2023/02/14 08:33:29;;;;;;;54.67;25.47;;;2.40;96.20;;;1.79;86.79;99870.41;5043867;28;20473;-72
2023/02/14 08:35:57;;;;;;;57.20;26.50;;;2.40;95.80;;;1.85;86.04;99863.78;5041187;28;20470;-74
2023/02/14 08:38:24;;;;;;;49.23;24.77;;;2.40;95.10;;;2.06;85.78;99873.84;5038602;28;20515;-74
2023/02/14 08:40:53;;;;;;;49.97;25.93;;;2.40;95.60;;;2.13;84.37;99869.72;5050924;28;20463;-74
2023/02/14 08:43:20;;;;;;;50.17;25.70;;;2.60;94.00;;;2.18;84.82;99866.72;5042333;28;20470;-74
2023/02/14 08:45:49;;;;;;;52.50;26.17;;;2.60;94.20;;;2.21;85.00;99863.81;5042361;28;20472;-73
2023/02/14 08:48:16;;;;;;;49.93;25.53;;;2.70;94.40;;;2.12;84.79;99865.34;5057489;28;20526;-75
2023/02/14 08:50:44;;;;;;;51.70;27.03;;;2.70;93.60;;;2.11;85.36;99869.00;5045774;28;20509;-76
2023/02/14 08:53:13;;;;;;;48.80;23.77;;;2.70;94.20;;;2.11;85.07;99871.66;5036071;28;20546;-74
2023/02/14 08:55:41;;;;;;;55.57;26.17;;;2.60;93.70;;;2.19;85.18;99874.59;5028476;28;20511;-74
2023/02/14 08:58:10;;;;;;;49.57;24.63;;;2.60;94.50;;;1.87;86.27;99874.34;5038090;28;20567;-74
2023/02/14 09:00:37;;;;;;;51.10;24.50;;;2.50;94.30;;;1.82;86.63;99869.34;5041474;28;20471;-73
2023/02/14 09:03:05;;;;;;;46.00;23.93;;;2.50;94.50;;;1.57;87.35;99859.66;5048237;28;20456;-73
2023/02/14 09:05:33;;;;;;;48.60;23.63;;;2.30;95.50;;;1.65;87.11;99868.78;5039307;28;20563;-70
2023/02/14 09:08:03;;;;;;;56.90;26.67;;;2.30;95.30;;;1.87;86.20;99867.19;5041149;28;20496;-69
2023/02/14 09:10:30;;;;;;;49.47;24.63;;;2.40;94.50;;;1.91;85.61;99868.69;5036101;28;20573;-74
2023/02/14 09:12:59;;;;;;;48.33;23.37;;;2.50;94.40;;;1.73;86.06;99870.00;5037946;28;20871;-73
2023/02/14 09:15:27;;;;;;;50.33;23.00;;;2.40;94.00;;;1.68;86.13;99852.56;5046784;28;20456;-70
2023/02/14 09:17:54;;;;;;;47.70;22.23;;;2.40;94.40;;;1.79;85.90;99854.41;5047840;28;20741;-75
2023/02/14 09:20:22;;;;;;;46.40;23.63;;;2.40;94.20;;;2.07;85.37;99851.53;5051786;28;20442;-70
2023/02/14 09:22:49;;;;;;;44.17;23.70;;;2.60;94.40;;;1.79;86.08;99857.09;5058694;28;20975;-71
2023/02/14 09:25:17;;;;;;;45.83;24.50;;;2.50;93.50;;;1.69;87.00;99870.25;5043703;28;20456;-70
2023/02/14 09:27:44;;;;;;;48.07;22.10;;;2.40;94.30;;;1.62;85.85;99826.38;5045112;28;20461;-71
2023/02/14 09:30:13;;;;;;;44.57;23.37;;;2.50;94.30;;;1.89;85.79;99857.25;5049560;28;20484;-72
2023/02/14 09:32:41;;;;;;;41.27;21.90;;;2.50;94.00;;;2.06;85.17;99849.84;5057092;28;20447;-71
2023/02/14 09:35:09;;;;;;;40.83;20.67;;;2.60;93.70;;;2.58;83.27;99852.13;5050479;28;20465;-70
2023/02/14 09:40:21;;;;;;;41.20;21.57;;;3.00;91.60;;;2.37;83.01;99843.00;5063596;28;20546;-71
2023/02/14 09:43:00;;;;;;;35.40;19.77;;;3.00;91.50;;;2.48;83.82;99850.16;5054507;28;20454;-71
2023/02/14 09:45:30;;;;;;;41.03;20.80;;;2.90;92.20;;;2.31;84.01;99862.16;5047067;28;20448;-71
2023/02/14 09:48:06;;;;;;;40.40;20.90;;;2.90;92.50;;;2.25;83.39;99810.13;5049636;28;21105;-72
2023/02/14 09:50:39;;;;;;;36.33;21.83;;;3.00;92.80;;;2.41;83.63;99852.47;5049075;28;21166;-72
2023/02/14 09:53:18;;;;;;;37.07;21.10;;;3.00;92.00;;;2.80;81.86;99846.81;5051296;28;20461;-71
2023/02/14 09:55:52;;;;;;;40.57;20.40;;;3.20;92.10;;;2.98;80.98;99846.34;5049308;28;20461;-70
2023/02/14 09:58:27;;;;;;;37.20;19.93;;;3.20;91.40;;;3.32;79.66;99848.13;5060403;28;20541;-72
2023/02/14 10:01:02;;;;;;;32.57;19.40;;;3.50;90.40;;;3.55;77.79;99854.28;5043653;28;20812;-71
2023/02/14 10:04:15;;;;;;;31.80;18.00;;;3.80;88.00;;;3.61;77.62;99848.44;5042451;28;20456;-70
2023/02/14 10:06:52;;;;;;;29.50;17.37;;;3.90;86.50;;;3.82;76.95;99844.97;5035835;28;20472;-72
2023/02/14 10:09:49;;;;;;;34.37;20.00;;;4.10;86.20;;;3.93;76.16;99858.31;5048504;28;20456;-71
2023/02/14 10:12:23;;;;;;;24.50;16.20;;;4.30;85.00;;;3.90;76.25;99858.56;5040706;28;20465;-72
2023/02/14 10:14:52;;;;;;;31.70;18.43;;;4.20;84.60;;;3.51;78.49;99847.50;5041448;28;20483;-73
2023/02/14 10:17:25;;;;;;;30.03;17.20;;;4.00;85.00;;;3.28;79.09;99854.69;5038787;28;20985;-71
2023/02/14 10:19:58;;;;;;;28.50;17.00;;;3.80;86.10;;;2.70;80.37;99848.53;5037247;28;20464;-70
2023/02/14 10:22:37;;;;;;;30.53;17.80;;;3.50;87.20;;;2.60;82.43;99852.88;5040840;28;20457;-69
2023/02/14 10:25:14;;;;;;;36.03;19.60;;;3.30;90.50;;;2.79;81.43;99842.44;5045270;28;20472;-70
2023/02/14 10:27:45;;;;;;;31.43;18.70;;;3.30;90.80;;;2.94;80.82;99843.06;5054757;28;20452;-70
2023/02/14 10:30:15;;;;;;;32.37;17.97;;;3.40;90.20;;;3.14;81.08;99839.78;5037555;28;20449;-70
2023/02/14 10:32:47;;;;;;;31.87;18.67;;;3.50;90.30;;;2.71;81.94;99839.53;5033707;28;20449;-71
2023/02/14 10:35:31;;;;;;;29.33;18.10;;;3.50;89.40;;;3.01;81.48;99842.56;5033983;28;20555;-70
2023/02/14 10:38:13;;;;;;;30.60;19.10;;;3.50;90.30;;;3.18;79.97;99842.06;5039844;28;20480;-72
2023/02/14 10:41:05;;;;;;;25.73;16.63;;;3.80;87.90;;;3.29;79.49;99838.56;5034404;28;20527;-72
2023/02/14 10:43:41;;;;;;;31.10;19.10;;;3.80;88.10;;;3.39;79.17;99836.81;5038594;28;20889;-71
2023/02/14 10:46:24;;;;;;;33.37;18.53;;;3.90;87.60;;;3.49;78.69;99833.41;5057783;28;20461;-72
2023/02/14 10:49:01;;;;;;;26.53;17.83;;;3.90;87.30;;;3.19;79.82;99826.91;5045220;28;20484;-72
2023/02/14 10:51:37;;;;;;;29.67;18.87;;;3.90;87.50;;;3.26;80.23;99828.09;5041533;28;20467;-71
2023/02/14 10:54:18;;;;;;;27.83;17.60;;;3.80;88.30;;;3.28;79.48;99830.66;5042506;28;20461;-69
2023/02/14 10:56:51;;;;;;;28.33;17.90;;;3.90;87.00;;;3.37;78.88;99822.72;5039256;28;20503;-70
2023/02/14 10:59:24;;;;;;;29.90;16.93;;;4.00;86.60;;;3.36;78.43;99821.03;5047127;28;20500;-73